Terminal Aerodrome Forecast
Issued by NWS Caribou, ME

Home | Current Version | Previous Version | Text Only | Print | Product List | Glossary On
Versions: 1 2 3 4 5 6 7 8 9 10 11 12 13 14 15 16 17 18
070
FTUS41 KCAR 201120
TAFCAR
TAF
KCAR 201120Z 2012/2112 19003KT 5SM -DZ BR BKN004
      TEMPO 2012/2014 SCT003 BKN070
     FM201500 30008KT P6SM VCSH BKN040
     FM202000 30014G22KT P6SM FEW035 SCT150
     FM210000 27005KT P6SM SCT200=

USA.gov is the U.S. government's official web portal to all federal, state and local government web resources and services.